createdAt,value
2022-11-16T00:02:23.034Z,100496.47
2022-11-16T00:05:10.061Z,100501.75
2022-11-16T00:07:56.745Z,100500.00
2022-11-16T00:10:43.394Z,100490.31
2022-11-16T00:13:30.365Z,100481.66
2022-11-16T00:16:19.286Z,100485.16
2022-11-16T00:19:07.370Z,100484.22
2022-11-16T00:21:54.803Z,100488.56
2022-11-16T00:24:41.315Z,100490.44
2022-11-16T00:27:28.148Z,100482.53
2022-11-16T00:30:15.394Z,100479.00
2022-11-16T00:33:03.839Z,100474.63
2022-11-16T00:35:50.355Z,100466.66
2022-11-16T00:38:37.423Z,100460.59
2022-11-16T00:41:24.978Z,100455.25
2022-11-16T00:44:11.839Z,100457.88
2022-11-16T00:46:58.602Z,100455.34
2022-11-16T00:49:46.690Z,100459.78
2022-11-16T00:52:33.609Z,100458.03
2022-11-16T00:55:21.131Z,100454.41
2022-11-16T00:58:07.816Z,100442.34
2022-11-16T01:00:54.534Z,100448.34
2022-11-16T01:03:43.981Z,100445.69
2022-11-16T01:06:32.045Z,100445.72
2022-11-16T01:09:20.438Z,100446.59
2022-11-16T01:12:10.311Z,100443.97
2022-11-16T01:14:57.686Z,100449.25
2022-11-16T01:17:44.830Z,100430.97
2022-11-16T01:20:31.885Z,100437.81
2022-11-16T01:23:19.959Z,100429.09
2022-11-16T01:26:07.237Z,100436.09
2022-11-16T01:28:55.919Z,100429.19
2022-11-16T01:31:43.286Z,100431.84
2022-11-16T01:34:30.087Z,100426.53
2022-11-16T01:37:23.807Z,100418.69
2022-11-16T01:40:13.274Z,100422.94
2022-11-16T01:43:01.241Z,100426.47
2022-11-16T01:45:49.316Z,100422.97
2022-11-16T01:48:36.927Z,100415.94
2022-11-16T01:51:24.670Z,100419.44
2022-11-16T01:54:14.773Z,100429.09
2022-11-16T01:57:19.473Z,100414.94
2022-11-16T02:00:16.169Z,100427.25
2022-11-16T02:03:12.909Z,100412.50
2022-11-16T02:06:28.186Z,100420.34
2022-11-16T02:09:55.897Z,100416.75
2022-11-16T02:13:14.979Z,100406.22
2022-11-16T02:16:15.059Z,100408.78
2022-11-16T02:19:26.452Z,100405.16
2022-11-16T02:22:26.651Z,100395.53
2022-11-16T02:25:18.742Z,100405.97
2022-11-16T02:28:26.379Z,100369.50
2022-11-16T02:31:18.978Z,100391.78
2022-11-16T02:34:10.142Z,100386.56
2022-11-16T02:36:59.628Z,100387.41
2022-11-16T02:39:51.216Z,100383.06
2022-11-16T02:42:43.089Z,100370.06
2022-11-16T02:45:36.516Z,100369.91
2022-11-16T02:48:33.427Z,100361.09
2022-11-16T02:51:22.081Z,100364.75
2022-11-16T02:54:13.227Z,100368.06
2022-11-16T02:57:29.779Z,100361.00
2022-11-16T03:00:22.434Z,100357.53
2022-11-16T03:03:18.381Z,100348.66
2022-11-16T03:06:13.024Z,100352.13
2022-11-16T03:09:04.142Z,100352.09
2022-11-16T03:12:02.882Z,100352.13
2022-11-16T03:14:56.626Z,100334.72
2022-11-16T03:17:47.714Z,100352.00
2022-11-16T03:20:36.414Z,100347.59
2022-11-16T03:23:24.867Z,100344.19
2022-11-16T03:26:14.391Z,100346.69
2022-11-16T03:29:05.590Z,100351.94
2022-11-16T03:31:58.385Z,100357.09
2022-11-16T03:34:52.578Z,100358.03
2022-11-16T03:37:41.675Z,100345.66
2022-11-16T03:40:35.227Z,100347.34
2022-11-16T03:43:25.092Z,100352.53
2022-11-16T03:46:13.558Z,100349.13
2022-11-16T03:49:02.106Z,100344.63
2022-11-16T03:51:53.911Z,100342.84
2022-11-16T03:54:41.516Z,100341.22
2022-11-16T03:57:29.732Z,100346.44
2022-11-16T04:00:19.244Z,100347.25
2022-11-16T04:03:05.819Z,100340.06
2022-11-16T04:06:09.926Z,100327.03
2022-11-16T04:09:14.611Z,100333.22
2022-11-16T04:12:19.198Z,100326.25
2022-11-16T04:15:30.345Z,100320.91
2022-11-16T04:18:35.167Z,100320.03
2022-11-16T04:21:44.253Z,100319.13
2022-11-16T04:24:35.745Z,100320.09
2022-11-16T04:27:44.751Z,100320.06
2022-11-16T04:30:55.508Z,100325.22
2022-11-16T04:34:00.286Z,100321.75
2022-11-16T04:37:05.657Z,100320.72
2022-11-16T04:39:52.451Z,100313.75
2022-11-16T04:42:39.290Z,100308.47
2022-11-16T04:45:44.538Z,100323.38
2022-11-16T04:48:32.960Z,100310.25
2022-11-16T04:51:21.840Z,100301.47
2022-11-16T04:54:08.780Z,100296.13
2022-11-16T04:56:55.491Z,100298.72
2022-11-16T04:59:43.215Z,100304.88
2022-11-16T05:02:29.989Z,100304.88
2022-11-16T05:05:19.733Z,100303.19
2022-11-16T05:08:09.329Z,100302.31
2022-11-16T05:10:57.194Z,100297.84
2022-11-16T05:13:43.970Z,100281.28
2022-11-16T05:16:31.112Z,100290.75
2022-11-16T05:19:35.009Z,100289.19
2022-11-16T05:22:23.307Z,100296.13
2022-11-16T05:25:12.765Z,100244.75
2022-11-16T05:27:59.734Z,100286.31
2022-11-16T05:30:48.188Z,100281.19
2022-11-16T05:33:43.232Z,100282.84
2022-11-16T05:36:33.247Z,100285.31
2022-11-16T05:39:21.410Z,100293.19
2022-11-16T05:42:10.804Z,100286.31
2022-11-16T05:44:58.083Z,100298.69
2022-11-16T05:47:45.395Z,100296.97
2022-11-16T05:50:32.377Z,100294.25
2022-11-16T05:53:34.926Z,100295.91
2022-11-16T05:56:23.234Z,100294.94
2022-11-16T05:59:16.643Z,100307.38
2022-11-16T06:02:05.106Z,100299.25
2022-11-16T06:04:53.884Z,100300.13
2022-11-16T06:07:41.116Z,100297.66
2022-11-16T06:10:28.072Z,100314.31
2022-11-16T06:13:16.499Z,100308.34
2022-11-16T06:16:04.955Z,100269.25
2022-11-16T06:18:53.568Z,100309.22
2022-11-16T06:21:40.380Z,100315.13
2022-11-16T06:24:33.278Z,100314.47
2022-11-16T06:27:20.189Z,100317.81
2022-11-16T06:30:09.607Z,100310.00
2022-11-16T06:32:58.084Z,100312.50
2022-11-16T06:35:45.953Z,100314.28
2022-11-16T06:38:36.735Z,100316.97
2022-11-16T06:41:24.069Z,100315.22
2022-11-16T06:44:11.310Z,100315.19
2022-11-16T06:47:04.832Z,100317.84
2022-11-16T06:49:52.769Z,100317.81
2022-11-16T06:52:42.008Z,100314.31
2022-11-16T06:55:29.232Z,100322.97
2022-11-16T06:58:15.993Z,100321.16
2022-11-16T07:01:07.687Z,100322.97
2022-11-16T07:03:57.771Z,100325.81
2022-11-16T07:06:44.588Z,100340.75
2022-11-16T07:09:33.902Z,100345.97
2022-11-16T07:12:20.731Z,100344.22
2022-11-16T07:15:08.973Z,100340.53
2022-11-16T07:18:03.698Z,100352.94
2022-11-16T07:20:52.799Z,100354.78
2022-11-16T07:23:40.256Z,100352.22
2022-11-16T07:26:31.264Z,100344.41
2022-11-16T07:29:23.419Z,100357.56
2022-11-16T07:32:29.923Z,100356.53
2022-11-16T07:35:29.123Z,100353.97
2022-11-16T07:38:18.300Z,100350.44
2022-11-16T07:41:08.007Z,100353.03
2022-11-16T07:43:58.023Z,100355.75
2022-11-16T07:46:51.084Z,100358.41
2022-11-16T07:49:37.779Z,100359.06
2022-11-16T07:52:30.324Z,100365.19
2022-11-16T07:55:32.765Z,100363.53
2022-11-16T07:58:23.263Z,100359.13
2022-11-16T08:01:11.942Z,100361.81
2022-11-16T08:04:02.986Z,100355.59
2022-11-16T08:06:51.847Z,100358.38
2022-11-16T08:09:40.892Z,100354.78
2022-11-16T08:12:33.802Z,100350.53
2022-11-16T08:15:21.047Z,100368.03
2022-11-16T08:18:07.806Z,100353.06
2022-11-16T08:20:54.654Z,100352.28
2022-11-16T08:23:42.834Z,100355.78
2022-11-16T08:26:29.331Z,100347.06
2022-11-16T08:29:26.692Z,100347.72
2022-11-16T08:32:13.897Z,100351.19
2022-11-16T08:35:02.064Z,100351.22
2022-11-16T08:37:48.928Z,100353.75
2022-11-16T08:40:37.257Z,100347.75
2022-11-16T08:43:24.513Z,100343.44
2022-11-16T08:46:12.699Z,100353.94
2022-11-16T08:49:00.592Z,100355.66
2022-11-16T08:51:47.378Z,100354.66
2022-11-16T08:54:34.011Z,100350.38
2022-11-16T08:57:20.850Z,100346.00
2022-11-16T09:00:13.175Z,100344.31
2022-11-16T09:03:01.201Z,100341.47
2022-11-16T09:05:48.035Z,100357.25
2022-11-16T09:08:37.222Z,100328.69
2022-11-16T09:11:26.541Z,100360.94
2022-11-16T09:14:13.308Z,100364.59
2022-11-16T09:17:00.248Z,100362.03
2022-11-16T09:19:48.391Z,100356.66
2022-11-16T09:22:36.140Z,100345.41
2022-11-16T09:25:23.575Z,100363.63
2022-11-16T09:28:11.285Z,100364.50
2022-11-16T09:31:02.016Z,100358.47
2022-11-16T09:33:48.930Z,100354.78
2022-11-16T09:36:37.556Z,100347.72
2022-11-16T09:39:30.917Z,100332.97
2022-11-16T09:42:30.297Z,100347.78
2022-11-16T09:45:25.125Z,100341.59
2022-11-16T09:48:13.685Z,100339.06
2022-11-16T09:51:08.305Z,100336.50
2022-11-16T09:54:00.187Z,100331.19
2022-11-16T09:56:51.818Z,100320.50
2022-11-16T09:59:42.219Z,100324.09
2022-11-16T10:02:34.429Z,100315.25
2022-11-16T10:05:23.684Z,100310.81
2022-11-16T10:08:17.556Z,100302.78
2022-11-16T10:11:35.346Z,100310.69
2022-11-16T10:14:34.136Z,100308.91
2022-11-16T10:17:32.720Z,100302.53
2022-11-16T10:20:38.683Z,100304.25
2022-11-16T10:23:38.064Z,100292.13
2022-11-16T10:26:33.289Z,100297.28
2022-11-16T10:29:33.774Z,100292.97
2022-11-16T10:32:28.292Z,100288.63
2022-11-16T10:35:19.970Z,100289.56
2022-11-16T10:38:12.669Z,100284.19
2022-11-16T10:41:06.211Z,100279.78
2022-11-16T10:43:57.122Z,100274.41
2022-11-16T10:46:48.912Z,100274.34
2022-11-16T10:49:44.948Z,100269.19
2022-11-16T10:52:32.316Z,100268.97
2022-11-16T10:55:21.858Z,100271.53
2022-11-16T10:58:08.465Z,100268.03
2022-11-16T11:01:00.267Z,100267.13
2022-11-16T11:03:46.885Z,100262.78
2022-11-16T11:06:33.879Z,100261.91
2022-11-16T11:09:27.950Z,100263.66
2022-11-16T11:12:35.194Z,100255.63
2022-11-16T11:15:26.109Z,100255.66
2022-11-16T11:18:20.372Z,100214.94
2022-11-16T11:21:13.959Z,100257.41
2022-11-16T11:24:16.391Z,100253.75
2022-11-16T11:27:08.630Z,100252.00
2022-11-16T11:29:58.768Z,100252.88
2022-11-16T11:32:45.851Z,100255.69
2022-11-16T11:35:34.140Z,100252.13
2022-11-16T11:38:20.582Z,100262.47
2022-11-16T11:41:19.805Z,100257.19
2022-11-16T11:44:15.945Z,100203.69
2022-11-16T11:47:55.692Z,100253.69
2022-11-16T11:50:22.919Z,100262.44
2022-11-16T11:53:22.478Z,100260.69
2022-11-16T11:56:12.728Z,100212.19
2022-11-16T11:58:59.572Z,100254.53
2022-11-16T12:02:11.907Z,100263.13
2022-11-16T12:05:28.342Z,100257.91
2022-11-16T12:08:31.355Z,100245.69
2022-11-16T12:11:29.321Z,100255.38
2022-11-16T12:14:30.203Z,100251.84
2022-11-16T12:17:21.651Z,100256.16
2022-11-16T12:20:27.099Z,100225.00
2022-11-16T12:23:40.215Z,100247.16
2022-11-16T12:26:38.925Z,100253.09
2022-11-16T12:29:27.414Z,100247.91
2022-11-16T12:32:36.526Z,100250.50
2022-11-16T12:35:41.531Z,100195.09
2022-11-16T12:38:50.261Z,100248.75
2022-11-16T12:42:18.844Z,100252.97
2022-11-16T12:45:45.516Z,100240.47
2022-11-16T12:48:51.888Z,100250.09
2022-11-16T12:51:56.345Z,100257.13
2022-11-16T12:55:25.379Z,100261.53
2022-11-16T12:58:16.049Z,100264.97
2022-11-16T13:01:12.792Z,100258.88
2022-11-16T13:04:06.276Z,100257.09
2022-11-16T13:06:57.540Z,100266.06
2022-11-16T13:09:48.880Z,100259.88
2022-11-16T13:12:38.821Z,100262.72
2022-11-16T13:15:37.302Z,100258.22
2022-11-16T13:18:24.976Z,100260.03
2022-11-16T13:21:22.009Z,100253.91
2022-11-16T13:24:21.342Z,100259.28
2022-11-16T13:27:23.700Z,100252.38
2022-11-16T13:30:19.302Z,100184.06
2022-11-16T13:33:24.314Z,100253.28
2022-11-16T13:36:43.586Z,100261.25
2022-11-16T13:40:08.710Z,100249.03
2022-11-16T13:43:20.641Z,100241.03
2022-11-16T13:46:22.372Z,100240.22
2022-11-16T13:49:33.751Z,100238.44
2022-11-16T13:52:24.775Z,100244.56
2022-11-16T13:55:16.998Z,100214.97
2022-11-16T13:58:06.336Z,100247.28
2022-11-16T14:01:00.497Z,100236.63
2022-11-16T14:03:51.718Z,100231.38
2022-11-16T14:06:58.600Z,100231.47
2022-11-16T14:09:48.113Z,100235.63
2022-11-16T14:12:57.389Z,100235.59
2022-11-16T14:15:43.874Z,100230.50
2022-11-16T14:18:37.399Z,100237.47
2022-11-16T14:21:42.123Z,100240.06
2022-11-16T14:24:35.136Z,100239.22
2022-11-16T14:27:31.690Z,100236.75
2022-11-16T14:30:23.329Z,100195.91
2022-11-16T14:33:16.556Z,100241.91
2022-11-16T14:36:05.607Z,100230.69
2022-11-16T14:38:53.671Z,100248.03
2022-11-16T14:41:45.846Z,100244.56
2022-11-16T14:44:38.983Z,100241.97
2022-11-16T14:47:28.489Z,100245.41
2022-11-16T14:50:22.152Z,100242.84
2022-11-16T14:53:11.477Z,100240.03
2022-11-16T14:56:09.924Z,100240.03
2022-11-16T14:58:57.968Z,100243.59
2022-11-16T15:01:44.685Z,100240.06
2022-11-16T15:04:33.708Z,100242.03
2022-11-16T15:07:23.220Z,100244.75
2022-11-16T15:10:17.805Z,100246.44
2022-11-16T15:13:06.180Z,100249.84
2022-11-16T15:16:11.480Z,100244.69
2022-11-16T15:18:59.389Z,100240.28
2022-11-16T15:21:52.581Z,100191.09
2022-11-16T15:24:39.060Z,100241.97
2022-11-16T15:27:36.525Z,100234.84
2022-11-16T15:30:26.171Z,100240.25
2022-11-16T15:33:18.949Z,100235.88
2022-11-16T15:36:23.425Z,100230.88
2022-11-16T15:39:15.102Z,100228.28
2022-11-16T15:42:04.038Z,100219.47
2022-11-16T15:44:52.359Z,100223.81
2022-11-16T15:47:41.888Z,100228.91
2022-11-16T15:50:29.246Z,100204.63
2022-11-16T15:53:38.683Z,100221.19
2022-11-16T15:56:32.061Z,100220.28
2022-11-16T15:59:26.139Z,100229.00
2022-11-16T16:02:19.524Z,100225.59
2022-11-16T16:05:08.534Z,100221.44
2022-11-16T16:07:55.406Z,100238.06
2022-11-16T16:10:42.981Z,100231.78
2022-11-16T16:13:33.116Z,100230.91
2022-11-16T16:16:31.945Z,100225.69
2022-11-16T16:19:33.805Z,100226.53
2022-11-16T16:22:29.631Z,100225.72
2022-11-16T16:25:30.927Z,100215.41
2022-11-16T16:28:17.510Z,100218.75
2022-11-16T16:31:07.512Z,100223.19
2022-11-16T16:33:55.728Z,100224.09
2022-11-16T16:36:42.537Z,100222.34
2022-11-16T16:39:32.116Z,100217.16
2022-11-16T16:42:19.181Z,100228.41
2022-11-16T16:45:06.697Z,100223.28
2022-11-16T16:47:53.090Z,100224.97
2022-11-16T16:50:41.196Z,100206.91
2022-11-16T16:53:28.046Z,100224.31
2022-11-16T16:56:19.783Z,100232.09
2022-11-16T16:59:06.328Z,100224.44
2022-11-16T17:01:53.152Z,100223.41
2022-11-16T17:04:39.737Z,100213.16
2022-11-16T17:07:26.636Z,100220.00
2022-11-16T17:10:13.602Z,100227.94
2022-11-16T17:13:03.231Z,100208.53
2022-11-16T17:15:49.898Z,100218.28
2022-11-16T17:18:36.750Z,100218.28
2022-11-16T17:21:23.491Z,100220.00
2022-11-16T17:24:13.144Z,100222.75
2022-11-16T17:27:02.072Z,100221.03
2022-11-16T17:29:58.824Z,100220.22
2022-11-16T17:32:49.663Z,100218.44
2022-11-16T17:35:43.054Z,100228.16
2022-11-16T17:38:35.158Z,100217.59
2022-11-16T17:41:22.908Z,100224.50
2022-11-16T17:44:18.592Z,100222.91
2022-11-16T17:47:15.066Z,100223.94
2022-11-16T17:50:06.453Z,100229.19
2022-11-16T17:52:58.408Z,100220.47
2022-11-16T17:55:46.859Z,100231.69
2022-11-16T17:58:34.499Z,100232.69
2022-11-16T18:01:21.341Z,100235.28
2022-11-16T18:04:09.422Z,100238.00
2022-11-16T18:06:56.060Z,100193.78
2022-11-16T18:09:42.766Z,100222.28
2022-11-16T18:12:29.612Z,100211.94
2022-11-16T18:15:31.839Z,100225.00
2022-11-16T18:18:18.367Z,100228.47
2022-11-16T18:21:08.196Z,100147.16
2022-11-16T18:23:55.448Z,100223.28
2022-11-16T18:26:42.544Z,100232.91
2022-11-16T18:29:29.145Z,100238.19
2022-11-16T18:32:16.012Z,100237.38
2022-11-16T18:35:04.763Z,100229.66
2022-11-16T18:37:52.685Z,100232.25
2022-11-16T18:40:39.734Z,100232.28
2022-11-16T18:43:26.402Z,100244.38
2022-11-16T18:46:13.165Z,100247.13
2022-11-16T18:49:00.675Z,100256.81
2022-11-16T18:51:47.175Z,100249.84
2022-11-16T18:54:35.211Z,100255.03
2022-11-16T18:57:21.889Z,100240.16
2022-11-16T19:00:11.157Z,100240.19
2022-11-16T19:02:57.946Z,100239.19
2022-11-16T19:05:44.966Z,100237.53
2022-11-16T19:08:31.575Z,100226.16
2022-11-16T19:11:19.840Z,100226.25
2022-11-16T19:14:07.849Z,100231.53
2022-11-16T19:16:57.272Z,100227.03
2022-11-16T19:19:45.285Z,100232.41
2022-11-16T19:22:34.030Z,100221.94
2022-11-16T19:25:20.896Z,100243.03
2022-11-16T19:28:09.015Z,100234.19
2022-11-16T19:30:55.916Z,100232.50
2022-11-16T19:33:44.499Z,100241.34
2022-11-16T19:36:32.191Z,100233.41
2022-11-16T19:39:18.786Z,100237.84
2022-11-16T19:42:05.900Z,100246.63
2022-11-16T19:44:53.767Z,100244.03
2022-11-16T19:47:40.648Z,100238.03
2022-11-16T19:50:27.173Z,100245.81
2022-11-16T19:53:14.072Z,100252.81
2022-11-16T19:56:00.877Z,100261.69
2022-11-16T19:58:48.319Z,100257.25
2022-11-16T20:01:36.429Z,100258.25
2022-11-16T20:04:23.174Z,100259.19
2022-11-16T20:07:11.864Z,100253.97
2022-11-16T20:09:59.744Z,100247.84
2022-11-16T20:12:46.271Z,100264.59
2022-11-16T20:15:32.919Z,100271.69
2022-11-16T20:18:21.138Z,100269.09
2022-11-16T20:21:09.664Z,100277.84
2022-11-16T20:24:04.663Z,100282.28
2022-11-16T20:26:53.863Z,100278.78
2022-11-16T20:29:40.761Z,100277.06
2022-11-16T20:32:27.409Z,100273.53
2022-11-16T20:35:19.083Z,100266.53
2022-11-16T20:38:06.267Z,100281.56
2022-11-16T20:40:53.062Z,100274.53
2022-11-16T20:43:40.551Z,100268.38
2022-11-16T20:46:28.451Z,100264.16
2022-11-16T20:49:15.065Z,100271.28
2022-11-16T20:52:03.162Z,100288.72
2022-11-16T20:54:49.845Z,100284.44
2022-11-16T20:57:36.745Z,100287.97
2022-11-16T21:00:23.651Z,100290.63
2022-11-16T21:03:10.420Z,100287.19
2022-11-16T21:05:57.107Z,100287.19
2022-11-16T21:08:48.389Z,100285.53
2022-11-16T21:11:55.958Z,100270.69
2022-11-16T21:14:41.663Z,100275.91
2022-11-16T21:17:28.551Z,100274.19
2022-11-16T21:20:30.977Z,100275.16
2022-11-16T21:23:17.631Z,100268.97
2022-11-16T21:26:07.502Z,100273.38
2022-11-16T21:28:54.364Z,100270.88
2022-11-16T21:31:40.967Z,100283.13
2022-11-16T21:34:28.755Z,100276.16
2022-11-16T21:37:15.527Z,100144.69
2022-11-16T21:40:02.940Z,100276.25
2022-11-16T21:42:53.252Z,100271.03
2022-11-16T21:45:39.790Z,100271.84
2022-11-16T21:48:26.253Z,100273.72
2022-11-16T21:51:14.831Z,100271.09
2022-11-16T21:54:01.582Z,100274.56
2022-11-16T21:56:48.070Z,100278.19
2022-11-16T21:59:36.537Z,100284.28
2022-11-16T22:02:23.886Z,100290.44
2022-11-16T22:05:28.460Z,100272.19
2022-11-16T22:08:15.236Z,100280.81
2022-11-16T22:11:02.102Z,100273.91
2022-11-16T22:13:49.258Z,100279.19
2022-11-16T22:16:37.290Z,100274.00
2022-11-16T22:19:24.102Z,100285.34
2022-11-16T22:22:11.018Z,100286.22
2022-11-16T22:24:57.677Z,100289.78
2022-11-16T22:28:13.759Z,100275.84
2022-11-16T22:31:00.746Z,100281.03
2022-11-16T22:33:52.836Z,100290.72
2022-11-16T22:36:39.489Z,100293.44
2022-11-16T22:39:27.551Z,100294.34
2022-11-16T22:42:14.567Z,100289.13
2022-11-16T22:45:01.209Z,100298.03
2022-11-16T22:47:52.085Z,100282.22
2022-11-16T22:50:42.621Z,100283.28
2022-11-16T22:53:29.378Z,100292.03
2022-11-16T22:56:16.166Z,100292.94
2022-11-16T22:59:03.432Z,100292.97
2022-11-16T23:01:51.703Z,100299.09
2022-11-16T23:04:38.329Z,100293.00
2022-11-16T23:07:26.901Z,100288.66
2022-11-16T23:10:13.666Z,100293.97
2022-11-16T23:13:17.785Z,100288.72
2022-11-16T23:16:05.357Z,100281.72
2022-11-16T23:18:51.743Z,100281.84
2022-11-16T23:21:55.866Z,100279.22
2022-11-16T23:25:02.505Z,100274.88
2022-11-16T23:27:56.660Z,100274.91
2022-11-16T23:30:43.400Z,100265.31
2022-11-16T23:36:23.947Z,100254.84
2022-11-16T23:39:10.717Z,100249.69
2022-11-16T23:42:14.681Z,100255.81
2022-11-16T23:45:01.500Z,100236.66
2022-11-16T23:47:48.263Z,100246.19
2022-11-16T23:50:35.069Z,100248.94
2022-11-16T23:53:23.292Z,100244.50
2022-11-16T23:56:10.091Z,100246.31
2022-11-16T23:58:57.911Z,100240.16
